Time;durP1;ratioP1;P1;durP2;ratioP2;P2;SDS_P1;SDS_P2;PMS_P1;PMS_P2;Temp;Humidity;BMP_temperature;BMP_pressure;BME280_temperature;BME280_humidity;BME280_pressure;Samples;Min_cycle;Max_cycle;Signal;HPM_P1;HPM_P2
2023/03/03 00:00:34;;;;;;;79.45;40.08;;;-2.70;99.90;;;;;;4951581;29;20100;-77
2023/03/03 00:03:04;;;;;;;86.88;39.55;;;-2.70;99.90;;;;;;4952647;28;20031;-78
2023/03/03 00:05:32;;;;;;;79.80;39.92;;;-2.80;99.90;;;;;;4951564;29;20118;-76
2023/03/03 00:07:58;;;;;;;92.70;44.88;;;-2.80;99.90;;;;;;4951265;28;20102;-78
2023/03/03 00:10:24;;;;;;;107.15;49.58;;;-2.90;99.90;;;;;;4950708;28;20157;-78
2023/03/03 00:12:50;;;;;;;109.82;50.88;;;-2.90;99.90;;;;;;4951693;28;20163;-78
2023/03/03 00:15:19;;;;;;;100.78;49.05;;;-3.00;99.90;;;;;;4951345;28;20025;-77
2023/03/03 00:17:45;;;;;;;99.30;47.22;;;-3.00;99.90;;;;;;4951438;28;20058;-77
2023/03/03 00:20:32;;;;;;;95.15;42.25;;;-3.10;99.90;;;;;;4952641;28;20058;-77
2023/03/03 00:23:12;;;;;;;119.57;51.17;;;-3.10;99.90;;;;;;4951685;29;20102;-77
2023/03/03 00:25:44;;;;;;;96.78;45.38;;;-3.20;99.90;;;;;;4951904;28;20385;-77
2023/03/03 00:28:24;;;;;;;100.72;44.15;;;-3.20;99.90;;;;;;4951477;29;20019;-78
2023/03/03 00:30:52;;;;;;;77.82;40.83;;;-3.20;99.90;;;;;;4951275;29;20473;-77
2023/03/03 00:33:33;;;;;;;91.03;40.85;;;-3.20;99.90;;;;;;4951372;28;20586;-78
2023/03/03 00:36:38;;;;;;;82.32;41.13;;;-3.10;99.90;;;;;;4951440;29;20026;-77
2023/03/03 00:39:32;;;;;;;94.85;45.97;;;-3.10;99.90;;;;;;4969247;28;20497;-77
2023/03/03 00:41:59;;;;;;;82.60;40.28;;;-3.10;99.90;;;;;;4954181;28;20051;-77
2023/03/03 00:44:44;;;;;;;80.30;38.53;;;-3.20;99.90;;;;;;4952454;28;20023;-78
2023/03/03 00:47:22;;;;;;;82.10;41.08;;;-3.20;99.90;;;;;;4950893;29;20043;-77
2023/03/03 00:49:47;;;;;;;81.43;39.92;;;-3.20;99.90;;;;;;4951179;29;20038;-77
2023/03/03 00:52:16;;;;;;;85.03;40.20;;;-3.30;99.90;;;;;;4951039;28;20031;-76
2023/03/03 00:54:42;;;;;;;83.78;40.83;;;-3.30;99.90;;;;;;4952314;28;20023;-77
2023/03/03 00:57:08;;;;;;;81.93;39.35;;;-3.30;99.90;;;;;;4952239;29;20050;-78
2023/03/03 00:59:33;;;;;;;93.07;41.95;;;-3.40;99.90;;;;;;4950825;28;20473;-78
2023/03/03 01:01:59;;;;;;;87.00;40.40;;;-3.40;99.90;;;;;;4950763;28;20129;-78
2023/03/03 01:04:25;;;;;;;86.35;39.33;;;-3.40;99.90;;;;;;4952271;28;20485;-76
2023/03/03 01:06:50;;;;;;;82.32;38.28;;;-3.50;99.90;;;;;;4952106;29;20027;-76
2023/03/03 01:09:16;;;;;;;91.57;41.33;;;-3.50;99.90;;;;;;4952221;29;20035;-76
2023/03/03 01:11:42;;;;;;;81.90;40.10;;;-3.50;99.90;;;;;;4950694;29;20027;-77
2023/03/03 01:14:07;;;;;;;79.82;38.75;;;-3.50;99.90;;;;;;4951996;28;20381;-77
2023/03/03 01:16:33;;;;;;;86.93;39.80;;;-3.50;99.90;;;;;;4950752;29;20073;-75
2023/03/03 01:18:59;;;;;;;90.00;39.72;;;-3.60;99.90;;;;;;4950841;29;20499;-76
2023/03/03 01:21:24;;;;;;;89.07;39.05;;;-3.60;99.90;;;;;;4950564;29;20042;-76
2023/03/03 01:23:50;;;;;;;81.72;38.55;;;-3.60;99.90;;;;;;4956638;28;20015;-75
2023/03/03 01:26:16;;;;;;;84.38;39.13;;;-3.60;99.90;;;;;;4969953;28;20030;-76
2023/03/03 01:28:41;;;;;;;84.85;37.65;;;-3.60;99.90;;;;;;4971126;28;20031;-75
2023/03/03 01:31:07;;;;;;;77.90;36.25;;;-3.70;99.90;;;;;;4969763;28;20023;-77
2023/03/03 01:33:34;;;;;;;79.60;35.97;;;-3.70;99.90;;;;;;4969827;28;20377;-76
2023/03/03 01:36:00;;;;;;;78.22;39.75;;;-3.80;99.90;;;;;;4969820;28;20034;-75
2023/03/03 01:38:26;;;;;;;85.57;39.53;;;-3.80;99.90;;;;;;4974480;28;20018;-77
2023/03/03 01:40:56;;;;;;;87.13;39.30;;;-3.80;99.90;;;;;;4963724;28;20173;-76
2023/03/03 01:43:24;;;;;;;84.18;37.10;;;-3.80;99.90;;;;;;4953640;28;20027;-78
2023/03/03 01:45:50;;;;;;;89.35;37.47;;;-3.80;99.90;;;;;;4953544;28;20110;-78
2023/03/03 01:48:31;;;;;;;75.82;36.97;;;-3.80;99.90;;;;;;4953639;29;20425;-77
2023/03/03 01:51:01;;;;;;;78.68;37.00;;;-3.90;99.90;;;;;;4953556;29;20098;-76
2023/03/03 01:53:54;;;;;;;82.88;37.90;;;-3.90;99.90;;;;;;4953498;28;20035;-78
2023/03/03 01:56:20;;;;;;;81.70;37.13;;;-3.90;99.90;;;;;;4953567;29;20031;-77
2023/03/03 01:58:52;;;;;;;82.30;37.88;;;-3.90;99.90;;;;;;4953667;28;20023;-76
2023/03/03 02:01:21;;;;;;;87.05;40.05;;;-4.00;99.90;;;;;;4953414;29;20063;-77
2023/03/03 02:03:47;;;;;;;73.95;36.85;;;-4.00;99.90;;;;;;4954615;28;20081;-78
2023/03/03 02:06:17;;;;;;;83.63;41.40;;;-4.00;99.90;;;;;;4953497;29;20023;-75
2023/03/03 02:08:58;;;;;;;81.72;38.35;;;-4.00;99.90;;;;;;4954827;28;20023;-76
2023/03/03 02:11:25;;;;;;;78.85;38.47;;;-4.00;99.90;;;;;;4953513;28;20038;-75
2023/03/03 02:13:51;;;;;;;76.18;36.05;;;-4.10;99.90;;;;;;4953437;29;20420;-76
2023/03/03 02:16:17;;;;;;;82.63;40.88;;;-4.10;99.90;;;;;;4954591;28;20102;-76
2023/03/03 02:18:43;;;;;;;78.28;36.95;;;-4.20;99.90;;;;;;4954575;28;20051;-76
2023/03/03 02:21:19;;;;;;;86.18;39.47;;;-4.10;99.90;;;;;;4953148;29;20039;-76
2023/03/03 02:24:03;;;;;;;80.28;39.45;;;-4.20;99.90;;;;;;4953170;29;20027;-79
2023/03/03 02:26:33;;;;;;;92.38;40.85;;;-4.20;99.90;;;;;;4953116;29;20459;-76
2023/03/03 02:28:59;;;;;;;83.38;39.67;;;-4.20;99.90;;;;;;4954187;28;20023;-79
2023/03/03 02:31:27;;;;;;;86.15;39.30;;;-4.20;99.90;;;;;;4952991;28;20019;-78
2023/03/03 02:33:53;;;;;;;87.15;37.88;;;-4.30;99.90;;;;;;4953282;29;20070;-76
2023/03/03 02:36:23;;;;;;;84.03;39.00;;;-4.30;99.90;;;;;;4954524;28;20031;-79
2023/03/03 02:38:57;;;;;;;90.80;39.72;;;-4.30;99.90;;;;;;4953054;28;20026;-75
2023/03/03 02:41:52;;;;;;;86.30;37.22;;;-4.30;99.90;;;;;;4952786;28;20066;-75
2023/03/03 02:44:23;;;;;;;89.00;38.15;;;-4.30;99.90;;;;;;4954269;28;20478;-76
2023/03/03 02:46:51;;;;;;;84.18;38.58;;;-4.40;99.90;;;;;;4952437;28;20051;-75
2023/03/03 02:49:20;;;;;;;78.45;35.53;;;-4.40;99.90;;;;;;4952269;28;20028;-76
2023/03/03 02:51:46;;;;;;;86.40;37.75;;;-4.40;99.90;;;;;;4953013;28;20104;-77
2023/03/03 02:54:13;;;;;;;81.72;37.28;;;-4.50;99.90;;;;;;4952808;28;20058;-77
2023/03/03 02:56:39;;;;;;;84.88;38.20;;;-4.50;99.90;;;;;;4952865;28;20481;-78
2023/03/03 02:59:05;;;;;;;78.20;39.22;;;-4.50;99.90;;;;;;4953924;28;20030;-77
2023/03/03 03:01:35;;;;;;;76.88;35.38;;;-4.50;99.90;;;;;;4953678;28;20050;-77
2023/03/03 03:04:05;;;;;;;68.10;35.15;;;-4.60;99.90;;;;;;4952916;28;20485;-77
2023/03/03 03:06:31;;;;;;;69.75;33.70;;;-4.60;99.90;;;;;;4952495;29;20024;-77
2023/03/03 03:08:56;;;;;;;71.63;33.38;;;-4.60;99.90;;;;;;4952602;29;20027;-77
2023/03/03 03:11:22;;;;;;;76.30;34.63;;;-4.60;99.90;;;;;;4953696;28;20016;-78
2023/03/03 03:13:48;;;;;;;68.88;33.05;;;-4.60;99.90;;;;;;4953500;28;20408;-77
2023/03/03 03:16:13;;;;;;;74.47;35.42;;;-4.60;99.90;;;;;;4952525;28;20492;-77
2023/03/03 03:18:39;;;;;;;69.00;32.17;;;-4.60;99.90;;;;;;4953492;28;20035;-77
2023/03/03 03:21:09;;;;;;;75.53;34.47;;;-4.60;99.90;;;;;;4953374;28;20455;-78
2023/03/03 03:23:35;;;;;;;74.60;34.08;;;-4.70;99.90;;;;;;4952334;29;20449;-77
2023/03/03 03:26:01;;;;;;;76.05;35.95;;;-4.70;99.90;;;;;;4953431;28;20070;-77
2023/03/03 03:28:27;;;;;;;80.63;35.95;;;-4.70;99.90;;;;;;4953528;28;20023;-76
2023/03/03 03:30:53;;;;;;;85.53;36.20;;;-4.70;99.90;;;;;;4952055;29;20084;-77
2023/03/03 03:33:18;;;;;;;80.70;35.78;;;-4.70;99.90;;;;;;4952183;29;20076;-77
2023/03/03 03:35:46;;;;;;;70.40;34.58;;;-4.80;99.90;;;;;;4953356;28;20117;-77
2023/03/03 03:38:12;;;;;;;76.60;35.53;;;-4.80;99.90;;;;;;4953414;28;20047;-77
2023/03/03 03:40:38;;;;;;;75.68;32.17;;;-4.90;99.90;;;;;;4951860;28;20035;-77
2023/03/03 03:43:03;;;;;;;71.45;32.30;;;-4.90;99.90;;;;;;4951925;28;20023;-77
2023/03/03 03:45:29;;;;;;;70.47;31.55;;;-4.90;99.90;;;;;;4951979;29;20031;-77
2023/03/03 03:47:55;;;;;;;77.10;34.22;;;-4.90;99.90;;;;;;4952095;28;20047;-79
2023/03/03 03:50:22;;;;;;;68.20;33.05;;;-4.90;99.90;;;;;;4952135;29;20164;-77
2023/03/03 03:52:48;;;;;;;74.50;33.17;;;-4.90;99.90;;;;;;4952097;28;20058;-77
2023/03/03 03:55:14;;;;;;;77.10;35.85;;;-4.90;99.90;;;;;;4953053;28;20362;-79
2023/03/03 03:57:41;;;;;;;68.30;35.47;;;-4.90;99.90;;;;;;4951822;28;20029;-79
2023/03/03 04:00:08;;;;;;;78.93;35.47;;;-5.00;99.90;;;;;;4950599;28;20023;-77
2023/03/03 04:02:34;;;;;;;95.97;36.63;;;-4.90;99.90;;;;;;4951764;28;20110;-76
2023/03/03 04:05:00;;;;;;;75.70;34.92;;;-4.90;99.90;;;;;;4953149;28;20038;-75
2023/03/03 04:07:26;;;;;;;63.92;28.15;;;-5.00;99.90;;;;;;4951728;28;20023;-76
2023/03/03 04:09:51;;;;;;;65.30;30.55;;;-5.00;99.90;;;;;;4952912;28;20039;-76
2023/03/03 04:12:17;;;;;;;64.82;29.85;;;-5.00;99.90;;;;;;4952884;28;20047;-75
2023/03/03 04:14:43;;;;;;;62.22;28.95;;;-5.00;99.90;;;;;;4952734;28;20532;-78
2023/03/03 04:17:18;;;;;;;66.68;29.75;;;-5.00;99.90;;;;;;4952829;28;20052;-77
2023/03/03 04:19:44;;;;;;;82.85;35.75;;;-5.00;99.90;;;;;;4952830;28;20443;-78
2023/03/03 04:22:11;;;;;;;87.38;40.42;;;-5.00;99.90;;;;;;4952885;28;20049;-77
2023/03/03 04:24:37;;;;;;;97.20;44.88;;;-5.00;99.90;;;;;;4951420;28;20028;-77
2023/03/03 04:27:03;;;;;;;108.10;47.60;;;-5.10;99.90;;;;;;4951334;28;20038;-77
2023/03/03 04:29:29;;;;;;;112.88;46.45;;;-5.10;99.90;;;;;;4952567;28;20473;-79
2023/03/03 04:31:54;;;;;;;108.32;48.70;;;-5.20;99.90;;;;;;4951201;28;20027;-77
2023/03/03 04:34:20;;;;;;;117.55;50.60;;;-5.20;99.90;;;;;;4952599;28;20452;-77
2023/03/03 04:36:45;;;;;;;119.35;48.67;;;-5.20;99.90;;;;;;4952441;28;20024;-78
2023/03/03 04:39:11;;;;;;;103.82;48.05;;;-5.30;99.90;;;;;;4951455;28;20520;-79
2023/03/03 04:41:37;;;;;;;104.45;43.65;;;-5.30;99.90;;;;;;4951057;28;20485;-77
2023/03/03 04:44:03;;;;;;;98.00;43.67;;;-5.30;99.90;;;;;;4951047;28;20027;-79
2023/03/03 04:46:28;;;;;;;108.32;47.30;;;-5.30;99.90;;;;;;4952231;28;20405;-77
2023/03/03 04:48:54;;;;;;;111.47;47.92;;;-5.30;99.90;;;;;;4951143;28;20043;-76
2023/03/03 04:51:20;;;;;;;95.20;43.53;;;-5.30;99.90;;;;;;4952359;28;20110;-78
2023/03/03 04:53:46;;;;;;;93.97;43.80;;;-5.30;99.90;;;;;;4952254;28;20374;-76
2023/03/03 04:56:11;;;;;;;94.68;40.20;;;-5.30;99.90;;;;;;4950916;29;20028;-77
2023/03/03 04:58:37;;;;;;;94.70;40.92;;;-5.20;99.90;;;;;;4952303;28;20054;-77
2023/03/03 05:01:03;;;;;;;87.57;39.17;;;-5.20;99.90;;;;;;4952036;28;20489;-76
2023/03/03 05:03:28;;;;;;;78.78;38.35;;;-5.20;99.90;;;;;;4948117;28;20030;-76
2023/03/03 05:05:54;;;;;;;98.03;41.40;;;-5.00;99.90;;;;;;4951895;28;20118;-76
2023/03/03 05:08:20;;;;;;;93.13;43.53;;;-5.00;99.90;;;;;;4951725;28;20073;-76
2023/03/03 05:10:45;;;;;;;92.95;46.40;;;-4.90;99.90;;;;;;4951682;28;20035;-78
2023/03/03 05:13:14;;;;;;;88.85;41.80;;;-4.80;99.90;;;;;;4953562;29;20020;-76
2023/03/03 05:15:39;;;;;;;90.63;39.08;;;-4.80;99.90;;;;;;4954156;29;20393;-76
2023/03/03 05:18:05;;;;;;;90.72;41.28;;;-4.80;99.90;;;;;;4953693;28;20028;-77
2023/03/03 05:20:31;;;;;;;86.72;36.65;;;-4.70;99.90;;;;;;4953887;28;20038;-77
2023/03/03 05:22:58;;;;;;;88.95;38.92;;;-4.70;99.90;;;;;;4954833;28;20027;-77
2023/03/03 05:25:24;;;;;;;116.40;53.40;;;-4.70;99.90;;;;;;4953633;28;20080;-78
2023/03/03 05:27:49;;;;;;;132.68;62.78;;;-4.70;99.90;;;;;;4953578;28;20106;-76
2023/03/03 05:30:15;;;;;;;152.75;72.68;;;-4.60;99.90;;;;;;4954768;28;20115;-79
2023/03/03 05:32:41;;;;;;;149.10;74.28;;;-4.50;99.90;;;;;;4953539;29;20024;-79
2023/03/03 05:35:07;;;;;;;372.80;152.18;;;-4.40;99.90;;;;;;4953787;29;20023;-79
2023/03/03 05:37:33;;;;;;;641.72;288.65;;;-4.40;99.90;;;;;;4953550;29;20110;-79
2023/03/03 05:39:58;;;;;;;508.38;228.32;;;-4.30;99.90;;;;;;4953600;28;20050;-77
2023/03/03 05:42:24;;;;;;;603.97;278.02;;;-4.20;99.90;;;;;;4954656;28;20039;-78
2023/03/03 05:44:49;;;;;;;505.60;228.77;;;-4.10;99.90;;;;;;4953289;28;20031;-78
2023/03/03 05:47:15;;;;;;;325.98;134.13;;;-4.10;99.90;;;;;;4954512;28;20400;-77
2023/03/03 05:49:40;;;;;;;235.50;103.88;;;-4.00;99.90;;;;;;4953283;28;20032;-77
2023/03/03 05:52:07;;;;;;;144.50;63.63;;;-4.00;99.90;;;;;;4954755;28;20554;-77
2023/03/03 05:54:34;;;;;;;126.18;52.13;;;-3.90;99.90;;;;;;4954392;28;20028;-77
2023/03/03 05:57:00;;;;;;;133.63;63.55;;;-3.80;99.90;;;;;;4953206;28;20496;-78
2023/03/03 05:59:26;;;;;;;144.05;65.55;;;-3.80;99.90;;;;;;4954341;28;20050;-77
2023/03/03 06:01:51;;;;;;;208.73;82.78;;;-3.60;99.90;;;;;;4954378;28;20477;-78
2023/03/03 06:04:17;;;;;;;223.80;88.80;;;-3.60;99.90;;;;;;4952988;28;20028;-77
2023/03/03 06:06:43;;;;;;;222.13;96.88;;;-3.60;99.90;;;;;;4954317;28;20019;-78
2023/03/03 06:09:08;;;;;;;279.38;112.25;;;-3.50;99.90;;;;;;4955936;28;20452;-78
2023/03/03 06:11:34;;;;;;;280.42;109.13;;;-3.40;99.90;;;;;;4959802;28;20065;-78
2023/03/03 06:13:59;;;;;;;222.00;95.43;;;-3.40;99.90;;;;;;4956591;28;20073;-78
2023/03/03 06:16:25;;;;;;;136.18;62.75;;;-3.30;99.90;;;;;;4953369;28;20019;-77
2023/03/03 06:18:51;;;;;;;134.60;60.95;;;-3.20;99.90;;;;;;4953093;28;20035;-78
2023/03/03 06:21:16;;;;;;;155.73;64.63;;;-3.20;99.90;;;;;;4953436;28;20366;-77
2023/03/03 06:23:42;;;;;;;131.32;56.53;;;-3.10;99.90;;;;;;4947054;28;20061;-77
2023/03/03 06:26:08;;;;;;;106.32;49.13;;;-3.00;99.90;;;;;;4942980;28;20039;-78
2023/03/03 06:28:33;;;;;;;134.98;59.47;;;-3.00;99.90;;;;;;4940776;28;20036;-78
2023/03/03 06:30:59;;;;;;;173.65;74.10;;;-3.00;99.90;;;;;;4952560;28;20028;-78
2023/03/03 06:33:25;;;;;;;146.77;65.85;;;-2.90;99.90;;;;;;5001894;28;20487;-78
2023/03/03 06:35:52;;;;;;;126.25;58.78;;;-2.80;99.90;;;;;;4948861;28;20028;-78
2023/03/03 06:38:18;;;;;;;116.85;53.75;;;-2.70;99.90;;;;;;4950106;28;20043;-78
2023/03/03 06:40:44;;;;;;;124.68;55.90;;;-2.60;99.90;;;;;;4952988;28;20070;-78
2023/03/03 06:43:11;;;;;;;118.88;57.72;;;-2.50;99.90;;;;;;4952033;28;20023;-79
2023/03/03 06:45:36;;;;;;;158.63;66.72;;;-2.50;99.90;;;;;;4956378;28;20027;-79
2023/03/03 06:48:02;;;;;;;131.15;62.08;;;-2.40;99.90;;;;;;4973317;28;20499;-78
2023/03/03 06:50:28;;;;;;;131.60;60.15;;;-2.40;99.90;;;;;;4971843;28;20507;-79
2023/03/03 06:53:09;;;;;;;189.10;89.32;;;-2.30;99.90;;;;;;4970169;28;20027;-79
2023/03/03 06:55:34;;;;;;;222.57;109.90;;;-2.20;99.90;;;;;;4969732;28;20133;-79
2023/03/03 06:58:01;;;;;;;168.32;80.00;;;-2.10;99.90;;;;;;4969952;28;20058;-78
2023/03/03 07:00:27;;;;;;;147.13;68.15;;;-2.10;99.90;;;;;;4964536;28;20480;-79
2023/03/03 07:03:17;;;;;;;121.28;58.67;;;-2.00;99.90;;;;;;4962238;28;20535;-80
2023/03/03 07:05:44;;;;;;;106.47;52.30;;;-2.00;99.90;;;;;;4963047;28;20035;-79
2023/03/03 07:08:15;;;;;;;112.70;51.50;;;-1.90;99.90;;;;;;4961384;28;20098;-80
2023/03/03 07:10:41;;;;;;;119.88;56.80;;;-1.80;99.90;;;;;;4962694;28;20015;-78
2023/03/03 07:13:24;;;;;;;119.97;55.53;;;-1.70;99.90;;;;;;4963419;28;20077;-78
2023/03/03 07:15:51;;;;;;;;;;;-1.60;99.90;;;;;;4962039;28;20381;-78
2023/03/03 07:18:36;;;;;;;141.10;63.83;;;-1.60;99.90;;;;;;4960281;28;20008;-78
2023/03/03 07:21:24;;;;;;;148.23;72.90;;;-1.60;99.90;;;;;;4959470;28;20054;-79
2023/03/03 07:23:52;;;;;;;115.53;56.08;;;-1.60;99.90;;;;;;4968192;28;20023;-78
2023/03/03 07:26:29;;;;;;;123.55;54.10;;;-1.70;99.90;;;;;;4951421;28;20050;-79
2023/03/03 07:29:13;;;;;;;126.03;59.38;;;-1.60;99.90;;;;;;4951374;29;20027;-79
2023/03/03 07:31:40;;;;;;;117.97;57.42;;;-1.60;99.90;;;;;;4951867;29;20106;-79
2023/03/03 07:34:34;;;;;;;141.38;66.70;;;-1.40;99.90;;;;;;4953116;28;20370;-78
2023/03/03 07:37:16;;;;;;;153.15;69.85;;;-1.40;99.90;;;;;;4959040;28;20042;-78
2023/03/03 07:39:45;;;;;;;127.97;60.35;;;-1.30;99.90;;;;;;4953321;28;20393;-79
2023/03/03 07:42:26;;;;;;;126.28;61.22;;;-1.30;99.90;;;;;;4953040;28;20043;-79
2023/03/03 07:44:54;;;;;;;132.27;63.35;;;-1.20;99.90;;;;;;4960054;28;20023;-78
2023/03/03 07:47:26;;;;;;;136.60;64.35;;;-1.10;99.90;;;;;;4972507;28;20043;-78
2023/03/03 07:49:54;;;;;;;135.45;65.03;;;-1.10;99.90;;;;;;4972380;28;20019;-79
2023/03/03 07:52:41;;;;;;;137.98;68.20;;;-1.00;99.90;;;;;;4972375;28;20057;-80
2023/03/03 07:55:41;;;;;;;143.90;69.88;;;-0.90;99.90;;;;;;4971137;28;20118;-79
2023/03/03 07:58:15;;;;;;;142.30;67.85;;;-0.90;99.90;;;;;;4973674;28;20023;-78
2023/03/03 08:00:44;;;;;;;149.93;70.13;;;-0.90;99.90;;;;;;4984675;28;20084;-80
2023/03/03 08:03:16;;;;;;;138.20;63.80;;;-0.90;99.90;;;;;;4950536;28;20388;-80
2023/03/03 08:05:49;;;;;;;164.73;73.07;;;-0.90;99.90;;;;;;4950755;28;20055;-80
2023/03/03 08:08:24;;;;;;;167.98;75.63;;;-0.80;99.90;;;;;;4948944;28;20062;-78
2023/03/03 08:10:54;;;;;;;148.05;64.88;;;-0.80;99.90;;;;;;4951881;28;20041;-79
2023/03/03 08:13:24;;;;;;;149.02;62.20;;;-0.70;99.90;;;;;;4951965;28;20019;-78
2023/03/03 08:15:55;;;;;;;119.30;52.70;;;-0.70;99.90;;;;;;4951010;28;20027;-79
2023/03/03 08:18:34;;;;;;;120.68;58.00;;;-0.60;99.90;;;;;;4949905;29;20435;-79
2023/03/03 08:21:11;;;;;;;124.15;56.97;;;-0.70;99.90;;;;;;4950486;29;20370;-79
2023/03/03 08:23:37;;;;;;;115.50;52.72;;;-0.60;99.90;;;;;;4952571;28;20089;-79
2023/03/03 08:26:03;;;;;;;126.97;50.35;;;-0.60;99.90;;;;;;4950300;28;20031;-79
2023/03/03 08:28:28;;;;;;;112.45;50.47;;;-0.60;99.90;;;;;;4952881;28;20034;-79
2023/03/03 08:30:54;;;;;;;112.72;49.15;;;-0.70;99.90;;;;;;4952637;28;20031;-79
2023/03/03 08:33:20;;;;;;;101.50;47.33;;;-0.70;99.90;;;;;;4951424;28;20385;-80
2023/03/03 08:35:47;;;;;;;109.88;48.95;;;-0.60;99.90;;;;;;4952406;28;20030;-79
2023/03/03 08:38:14;;;;;;;117.95;49.30;;;-0.70;99.90;;;;;;4950199;29;20019;-79
2023/03/03 08:40:40;;;;;;;110.63;45.65;;;-0.70;99.90;;;;;;4950169;28;20039;-79
2023/03/03 08:43:06;;;;;;;108.28;48.30;;;-0.80;99.90;;;;;;4952692;28;20038;-79
2023/03/03 08:45:32;;;;;;;126.78;50.80;;;-0.80;99.90;;;;;;4951957;28;20027;-79
2023/03/03 08:47:58;;;;;;;153.52;60.83;;;-0.90;99.90;;;;;;4950996;28;20023;-79
2023/03/03 08:50:25;;;;;;;154.93;66.88;;;-0.90;99.90;;;;;;4951692;28;20051;-80
2023/03/03 08:52:51;;;;;;;136.82;54.97;;;-0.90;99.90;;;;;;4948879;28;20031;-80
2023/03/03 08:55:17;;;;;;;152.73;60.78;;;-0.90;99.90;;;;;;4950280;28;20035;-79
2023/03/03 08:57:43;;;;;;;156.68;56.70;;;-0.90;99.90;;;;;;4949124;29;20445;-79
2023/03/03 09:00:12;;;;;;;168.50;61.53;;;-0.90;99.90;;;;;;4948934;28;20054;-79
2023/03/03 09:02:38;;;;;;;131.70;49.67;;;-1.00;99.90;;;;;;4950752;28;20031;-80
2023/03/03 09:05:04;;;;;;;145.10;51.72;;;-0.90;99.90;;;;;;4950998;28;20030;-79
2023/03/03 09:07:30;;;;;;;176.02;61.25;;;-0.90;99.90;;;;;;4952224;28;20027;-79
2023/03/03 09:09:56;;;;;;;162.82;53.03;;;-0.90;99.90;;;;;;4952406;28;20446;-79
2023/03/03 09:12:28;;;;;;;151.35;51.70;;;-0.80;99.90;;;;;;4951121;28;20102;-79
2023/03/03 09:15:14;;;;;;;168.93;62.90;;;-0.90;99.90;;;;;;4952326;28;20019;-79
2023/03/03 09:17:40;;;;;;;214.15;76.72;;;-0.90;99.90;;;;;;4950967;28;20024;-79
2023/03/03 09:20:37;;;;;;;157.30;60.03;;;-0.90;99.90;;;;;;4951925;28;20033;-79
2023/03/03 09:23:36;;;;;;;185.00;62.30;;;-0.90;99.90;;;;;;4950975;29;20392;-80
2023/03/03 09:26:22;;;;;;;171.77;58.08;;;-0.90;99.90;;;;;;4962092;28;20104;-79
2023/03/03 09:28:47;;;;;;;172.07;57.72;;;-0.90;99.90;;;;;;4952222;28;20076;-79
2023/03/03 09:31:23;;;;;;;165.75;56.90;;;-1.00;99.90;;;;;;4950722;28;20121;-79
2023/03/03 09:33:50;;;;;;;151.15;53.03;;;-1.00;99.90;;;;;;4952043;28;20153;-79
2023/03/03 09:36:24;;;;;;;138.90;49.15;;;-1.10;99.90;;;;;;4950614;28;20507;-79
2023/03/03 09:38:51;;;;;;;150.05;51.53;;;-1.10;99.90;;;;;;4952010;28;20031;-79
2023/03/03 09:41:36;;;;;;;142.60;49.40;;;-1.00;99.90;;;;;;4951767;28;20035;-79
2023/03/03 09:44:37;;;;;;;129.68;51.88;;;-1.00;99.90;;;;;;4952008;28;20024;-79
2023/03/03 09:47:21;;;;;;;162.55;64.20;;;-1.00;99.90;;;;;;4968968;28;20047;-79
2023/03/03 09:50:11;;;;;;;136.02;56.63;;;-1.00;99.90;;;;;;4951888;28;20027;-79
2023/03/03 09:53:05;;;;;;;150.98;56.50;;;-1.00;99.90;;;;;;4951818;28;20024;-79
2023/03/03 09:55:37;;;;;;;;;;;-0.90;99.90;;;;;;4951013;28;20034;-79
2023/03/03 09:58:08;;;;;;;100.20;39.53;;;-0.90;99.90;;;;;;5035084;28;19961;-79
2023/03/03 10:01:01;;;;;;;116.30;50.22;;;-0.90;99.90;;;;;;4953500;28;20050;-79
2023/03/03 10:03:39;;;;;;;75.38;33.25;;;-0.90;99.90;;;;;;4954921;28;20449;-79
2023/03/03 10:06:19;;;;;;;79.78;32.55;;;-0.90;99.90;;;;;;4954762;28;20085;-79
2023/03/03 10:09:03;;;;;;;71.05;28.17;;;-0.80;99.90;;;;;;4953508;28;20118;-79
2023/03/03 10:12:00;;;;;;;85.78;37.72;;;-0.90;99.90;;;;;;4953393;28;20540;-79
2023/03/03 10:15:06;;;;;;;77.30;30.65;;;-0.90;99.90;;;;;;4990572;28;20393;-79
2023/03/03 10:17:42;;;;;;;83.68;36.83;;;-0.90;99.90;;;;;;4957864;28;20038;-79
2023/03/03 10:20:21;;;;;;;76.05;32.45;;;-0.80;99.90;;;;;;4954366;28;20028;-80
2023/03/03 10:22:55;;;;;;;84.20;34.90;;;-0.80;99.90;;;;;;4953336;29;20084;-79
2023/03/03 10:25:49;;;;;;;79.20;32.35;;;-0.70;99.90;;;;;;4953337;28;20023;-79
2023/03/03 10:28:49;;;;;;;135.30;47.80;;;-0.70;99.90;;;;;;4954872;28;20472;-79
2023/03/03 10:31:24;;;;;;;317.67;123.40;;;-0.60;99.90;;;;;;4953307;28;20049;-79
2023/03/03 10:33:59;;;;;;;147.57;57.35;;;-0.60;99.90;;;;;;4953289;28;20365;-79
2023/03/03 10:36:40;;;;;;;324.52;132.35;;;-0.60;99.90;;;;;;4953234;28;20038;-79
2023/03/03 10:39:27;;;;;;;204.63;78.07;;;-0.60;99.90;;;;;;4953001;29;20050;-79
2023/03/03 10:42:21;;;;;;;131.75;52.85;;;-0.70;99.90;;;;;;4953080;28;20035;-79
2023/03/03 10:45:20;;;;;;;108.70;45.10;;;-0.70;99.90;;;;;;4953067;29;20101;-79
2023/03/03 10:47:57;;;;;;;88.32;40.08;;;-0.70;99.90;;;;;;4953049;28;20070;-79
2023/03/03 10:50:49;;;;;;;141.15;56.13;;;-0.70;99.90;;;;;;4954320;28;20377;-79
2023/03/03 10:53:20;;;;;;;138.23;60.45;;;-0.70;99.90;;;;;;4962898;28;20490;-79
2023/03/03 10:56:23;;;;;;;194.52;80.85;;;-0.80;99.90;;;;;;4952829;29;20035;-79
2023/03/03 10:59:30;;;;;;;90.57;41.67;;;-0.60;99.90;;;;;;4952901;28;20118;-79
2023/03/03 11:02:06;;;;;;;153.40;63.83;;;-0.50;99.90;;;;;;5032948;28;20051;-79
2023/03/03 11:04:53;;;;;;;153.02;66.78;;;-0.50;99.90;;;;;;4961042;28;20569;-80
2023/03/03 11:07:22;;;;;;;102.63;44.85;;;-0.40;99.90;;;;;;4953976;28;20054;-80
2023/03/03 11:10:02;;;;;;;80.70;36.40;;;-0.30;99.90;;;;;;4953425;28;20493;-79
2023/03/03 11:12:56;;;;;;;83.40;36.38;;;-0.30;99.90;;;;;;4952604;28;20035;-79
2023/03/03 11:15:53;;;;;;;97.55;37.67;;;-0.30;99.90;;;;;;4951586;28;20515;-79
2023/03/03 11:18:46;;;;;;;93.03;37.83;;;-0.30;99.90;;;;;;4953815;28;20924;-79
2023/03/03 11:21:49;;;;;;;64.35;28.58;;;-0.30;99.90;;;;;;4951052;29;20063;-79
2023/03/03 11:24:29;;;;;;;71.57;28.17;;;-0.20;99.90;;;;;;4965525;28;20765;-79
2023/03/03 11:27:08;;;;;;;68.72;28.50;;;-0.10;99.90;;;;;;4951415;29;20546;-80
2023/03/03 11:29:39;;;;;;;75.85;30.27;;;-0.10;99.90;;;;;;4952004;29;20020;-79
2023/03/03 11:32:26;;;;;;;64.00;29.15;;;0.00;99.90;;;;;;4952264;29;20373;-79
2023/03/03 11:34:59;;;;;;;53.75;26.55;;;0.10;99.90;;;;;;4952315;29;20042;-79
2023/03/03 11:37:35;;;;;;;109.28;45.67;;;0.20;99.90;;;;;;4952465;28;20023;-79
2023/03/03 11:40:26;;;;;;;106.50;42.83;;;0.10;99.90;;;;;;4952058;29;20028;-79
2023/03/03 11:43:26;;;;;;;81.07;33.28;;;0.20;99.90;;;;;;4953475;28;20046;-79
2023/03/03 11:45:57;;;;;;;67.82;29.38;;;0.30;99.90;;;;;;4971471;28;20066;-80
2023/03/03 11:48:38;;;;;;;76.13;31.50;;;0.40;99.90;;;;;;4952102;29;20056;-80
2023/03/03 11:51:46;;;;;;;86.80;34.78;;;0.40;99.90;;;;;;4952012;29;20027;-80
2023/03/03 11:54:27;;;;;;;111.32;45.85;;;0.40;99.90;;;;;;4953378;28;20070;-80
2023/03/03 11:57:18;;;;;;;116.43;46.72;;;0.40;99.90;;;;;;4952017;29;20024;-79
2023/03/03 11:59:48;;;;;;;90.95;37.85;;;0.50;99.90;;;;;;4962039;28;20413;-77
2023/03/03 12:02:22;;;;;;;336.75;118.82;;;0.50;99.90;;;;;;4951863;28;20105;-78
2023/03/03 12:04:54;;;;;;;155.05;61.45;;;0.50;99.90;;;;;;4951951;29;20027;-77
2023/03/03 12:07:51;;;;;;;75.80;31.88;;;0.60;99.90;;;;;;4951862;29;20034;-78
2023/03/03 12:10:37;;;;;;;122.97;49.05;;;0.50;99.90;;;;;;4971679;28;20085;-78
2023/03/03 12:13:13;;;;;;;106.25;42.85;;;0.60;99.90;;;;;;4951519;29;20042;-78
2023/03/03 12:16:11;;;;;;;92.07;38.65;;;0.60;99.90;;;;;;4952957;28;20523;-77
2023/03/03 12:19:03;;;;;;;63.45;26.30;;;0.50;99.90;;;;;;4952124;29;20027;-78
2023/03/03 12:21:55;;;;;;;102.70;39.63;;;0.50;99.90;;;;;;4950306;29;20031;-78
2023/03/03 12:24:23;;;;;;;108.47;46.15;;;0.40;99.90;;;;;;4951555;28;20481;-78
2023/03/03 12:27:12;;;;;;;65.50;27.73;;;0.50;99.90;;;;;;4951654;28;20439;-77
2023/03/03 12:29:53;;;;;;;121.20;49.20;;;0.40;99.90;;;;;;4951603;29;20499;-78
2023/03/03 12:32:43;;;;;;;187.70;73.82;;;0.50;99.90;;;;;;4952807;28;20102;-77
2023/03/03 12:35:34;;;;;;;199.65;73.95;;;0.60;99.90;;;;;;4951257;28;20035;-78
2023/03/03 12:38:19;;;;;;;301.55;119.28;;;0.70;99.90;;;;;;4951476;29;20485;-78
2023/03/03 12:40:56;;;;;;;122.43;47.90;;;0.80;99.90;;;;;;4951630;28;20027;-78
2023/03/03 12:43:25;;;;;;;121.18;46.50;;;0.80;99.90;;;;;;4952713;28;20469;-78
2023/03/03 12:46:14;;;;;;;136.00;52.45;;;0.80;99.90;;;;;;4952154;28;20097;-78
2023/03/03 12:48:43;;;;;;;132.60;41.08;;;0.80;99.90;;;;;;4952743;28;20031;-78
2023/03/03 12:51:38;;;;;;;51.55;21.00;;;0.90;99.90;;;;;;4952844;28;20362;-78